createdAt,value
2022-09-23T00:07:20.456Z,11.80
2022-09-23T00:10:09.827Z,11.80
2022-09-23T00:12:56.547Z,11.70
2022-09-23T00:15:43.266Z,11.60
2022-09-23T00:24:03.688Z,11.30
2022-09-23T00:26:51.461Z,11.40
2022-09-23T00:35:12.374Z,11.20
2022-09-23T00:40:46.383Z,10.90
2022-09-23T00:43:43.296Z,11.10
2022-09-23T00:46:34.807Z,11.20
2022-09-23T00:49:28.887Z,11.20
2022-09-23T00:52:17.959Z,11.20
2022-09-23T00:55:08.543Z,11.30
2022-09-23T00:57:59.606Z,11.30
2022-09-23T01:00:47.385Z,11.20
2022-09-23T01:12:03.795Z,10.90
2022-09-23T01:14:57.607Z,11.00
2022-09-23T01:17:54.739Z,11.10
2022-09-23T01:20:59.223Z,11.10
2022-09-23T01:24:14.581Z,11.10
2022-09-23T01:27:11.330Z,11.00
2022-09-23T01:30:12.778Z,11.00
2022-09-23T01:33:14.153Z,11.00
2022-09-23T01:36:09.990Z,11.00
2022-09-23T01:39:02.005Z,11.00
2022-09-23T01:41:55.947Z,11.00
2022-09-23T01:44:48.139Z,10.90
2022-09-23T01:47:39.505Z,10.90
2022-09-23T01:50:49.446Z,10.90
2022-09-23T01:53:42.687Z,10.50
2022-09-23T01:56:31.351Z,10.40
2022-09-23T01:59:22.679Z,10.30
2022-09-23T02:02:15.311Z,10.20
2022-09-23T02:05:05.178Z,10.10
2022-09-23T02:07:59.368Z,9.80
2022-09-23T02:10:50.257Z,9.70
2022-09-23T02:13:41.960Z,9.80
2022-09-23T02:16:32.215Z,10.10
2022-09-23T02:19:24.335Z,10.20
2022-09-23T02:22:16.141Z,10.30
2022-09-23T02:25:04.778Z,10.30
2022-09-23T02:27:58.932Z,10.40
2022-09-23T02:30:50.388Z,10.40
2022-09-23T02:33:42.567Z,10.40
2022-09-23T02:36:33.313Z,10.50
2022-09-23T02:39:23.853Z,10.50
2022-09-23T02:42:18.436Z,10.40
2022-09-23T02:47:57.841Z,10.20
2022-09-23T02:50:44.413Z,9.90
2022-09-23T02:53:34.429Z,10.10
2022-09-23T02:56:22.291Z,10.10
2022-09-23T02:59:10.698Z,10.10
2022-09-23T03:02:17.447Z,9.90
2022-09-23T03:05:11.268Z,9.90
2022-09-23T03:08:12.080Z,9.80
2022-09-23T03:11:05.771Z,9.90
2022-09-23T03:14:04.990Z,10.00
2022-09-23T03:17:00.990Z,10.10
2022-09-23T03:19:53.637Z,10.00
2022-09-23T03:22:46.183Z,9.80
2022-09-23T03:25:36.604Z,9.40
2022-09-23T03:28:25.380Z,9.30
2022-09-23T03:31:14.100Z,9.50
2022-09-23T03:34:05.985Z,9.60
2022-09-23T03:37:00.492Z,9.80
2022-09-23T03:39:52.563Z,9.80
2022-09-23T03:42:40.201Z,9.80
2022-09-23T03:45:31.754Z,9.60
2022-09-23T03:51:21.727Z,9.50
2022-09-23T03:59:44.259Z,9.40
2022-09-23T04:05:19.369Z,9.60
2022-09-23T04:08:07.427Z,9.70
2022-09-23T04:19:16.533Z,9.80
2022-09-23T04:24:51.512Z,9.70
2022-09-23T04:33:12.878Z,9.70
2022-09-23T04:38:46.496Z,9.70
2022-09-23T04:58:22.935Z,9.70
2022-09-23T05:09:35.678Z,9.70
2022-09-23T05:15:12.991Z,9.80
2022-09-23T05:18:00.092Z,9.70
2022-09-23T05:20:46.477Z,9.60
2022-09-23T05:31:56.019Z,9.40
2022-09-23T05:34:43.036Z,9.50
2022-09-23T05:37:29.666Z,9.50
2022-09-23T05:40:16.554Z,9.50
2022-09-23T05:48:38.870Z,9.70
2022-09-23T05:57:06.072Z,9.90
2022-09-23T06:05:30.919Z,9.80
2022-09-23T06:08:17.549Z,9.80
2022-09-23T06:11:07.676Z,9.80
2022-09-23T06:13:56.649Z,9.80
2022-09-23T06:16:43.857Z,9.60
2022-09-23T06:22:18.711Z,9.70
2022-09-23T06:25:05.919Z,9.60
2022-09-23T06:27:57.237Z,9.40
2022-09-23T06:30:43.989Z,9.40
2022-09-23T06:36:39.173Z,9.60
2022-09-23T06:39:31.088Z,9.60
2022-09-23T06:47:56.320Z,9.80
2022-09-23T06:53:32.055Z,9.90
2022-09-23T06:56:22.048Z,9.90
2022-09-23T06:59:12.940Z,10.00
2022-09-23T07:13:16.038Z,10.40
2022-09-23T07:16:03.647Z,10.50
2022-09-23T07:18:50.264Z,10.60
2022-09-23T07:21:37.818Z,10.60
2022-09-23T07:24:24.408Z,10.80
2022-09-23T07:30:02.594Z,11.10
2022-09-23T07:32:49.511Z,11.20
2022-09-23T07:41:20.185Z,11.60
2022-09-23T07:46:56.741Z,11.70
2022-09-23T07:49:43.444Z,11.90
2022-09-23T07:55:21.009Z,12.30
2022-09-23T08:03:43.860Z,12.50
2022-09-23T08:06:30.581Z,12.60
2022-09-23T08:09:18.420Z,12.60
2022-09-23T08:12:05.286Z,12.80
2022-09-23T08:20:47.423Z,13.10
2022-09-23T08:31:58.104Z,13.40
2022-09-23T08:37:33.241Z,13.60
2022-09-23T08:40:20.370Z,13.50
2022-09-23T08:43:08.131Z,13.70
2022-09-23T08:45:58.343Z,13.80
2022-09-23T08:48:48.202Z,14.00
2022-09-23T08:51:40.330Z,14.10
2022-09-23T08:54:32.156Z,14.20
2022-09-23T08:57:30.671Z,14.20
2022-09-23T09:00:21.903Z,14.30
2022-09-23T09:03:20.469Z,14.20
2022-09-23T09:08:57.967Z,14.30
2022-09-23T09:11:49.388Z,14.40
2022-09-23T09:14:42.347Z,14.40
2022-09-23T09:17:38.216Z,14.50
2022-09-23T09:20:32.287Z,14.60
2022-09-23T09:23:23.198Z,14.60
2022-09-23T09:26:16.530Z,14.60
2022-09-23T09:29:33.722Z,14.60
2022-09-23T09:32:25.581Z,14.70
2022-09-23T09:35:24.253Z,14.70
2022-09-23T09:41:10.773Z,15.00
2022-09-23T09:46:58.978Z,15.10
2022-09-23T09:49:55.506Z,15.20
2022-09-23T09:55:30.477Z,15.40
2022-09-23T10:03:59.203Z,16.00
2022-09-23T10:07:06.459Z,16.00
2022-09-23T10:15:54.694Z,16.90
2022-09-23T10:18:56.734Z,17.20
2022-09-23T10:21:43.932Z,17.20
2022-09-23T10:24:32.422Z,17.30
2022-09-23T10:27:28.132Z,17.50
2022-09-23T10:30:22.600Z,17.60
2022-09-23T10:33:27.801Z,17.90
2022-09-23T10:36:17.685Z,18.40
2022-09-23T10:39:22.835Z,22.70
2022-09-23T10:42:36.381Z,20.80
2022-09-23T10:46:03.172Z,21.40
2022-09-23T10:49:02.504Z,21.00
2022-09-23T10:52:00.263Z,20.60
2022-09-23T10:54:54.332Z,20.80
2022-09-23T10:57:54.685Z,21.00
2022-09-23T11:00:51.733Z,21.60
2022-09-23T11:04:09.690Z,22.70
2022-09-23T11:07:12.924Z,24.10
2022-09-23T11:10:35.397Z,25.60
2022-09-23T11:13:54.060Z,26.90
2022-09-23T11:16:55.082Z,26.80
2022-09-23T11:20:24.172Z,27.20
2022-09-23T11:23:35.692Z,27.90
2022-09-23T11:26:33.977Z,28.20
2022-09-23T11:29:42.546Z,28.60
2022-09-23T11:32:56.867Z,28.60
2022-09-23T11:35:49.132Z,29.20
2022-09-23T11:38:41.240Z,29.20
2022-09-23T11:41:30.722Z,29.10
2022-09-23T11:44:24.478Z,28.70
2022-09-23T11:47:19.561Z,28.50
2022-09-23T11:50:16.012Z,27.70
2022-09-23T11:53:08.098Z,28.10
2022-09-23T11:56:03.480Z,28.90
2022-09-23T11:58:59.971Z,28.80
2022-09-23T12:01:51.442Z,28.70
2022-09-23T12:04:51.753Z,29.50
2022-09-23T12:07:51.719Z,28.80
2022-09-23T12:10:45.812Z,29.30
2022-09-23T12:13:43.388Z,30.00
2022-09-23T12:16:58.661Z,29.60
2022-09-23T12:20:05.503Z,29.10
2022-09-23T12:23:02.283Z,29.20
2022-09-23T12:25:52.610Z,29.00
2022-09-23T12:28:44.994Z,28.70
2022-09-23T12:31:40.325Z,28.70
2022-09-23T12:34:34.339Z,28.50
2022-09-23T12:37:27.426Z,28.10
2022-09-23T12:40:21.743Z,27.90
2022-09-23T12:43:17.667Z,26.30
2022-09-23T12:46:25.564Z,25.90
2022-09-23T12:49:37.320Z,27.70
2022-09-23T12:52:27.039Z,28.80
2022-09-23T12:55:45.559Z,29.60
2022-09-23T12:58:59.314Z,29.40
2022-09-23T13:01:47.341Z,27.90
2022-09-23T13:05:01.512Z,27.30
2022-09-23T13:07:50.629Z,26.10
2022-09-23T13:10:44.083Z,25.80
2022-09-23T13:13:37.186Z,24.80
2022-09-23T13:16:27.143Z,25.50
2022-09-23T13:19:47.163Z,25.40
2022-09-23T13:23:06.942Z,25.00
2022-09-23T13:25:57.422Z,25.20
2022-09-23T13:28:55.741Z,24.80
2022-09-23T13:31:43.876Z,23.90
2022-09-23T13:34:34.474Z,23.60
2022-09-23T13:37:47.442Z,22.80
2022-09-23T13:40:35.269Z,22.10
2022-09-23T13:43:26.300Z,21.90
2022-09-23T13:46:17.222Z,21.70
2022-09-23T14:11:43.266Z,20.70
2022-09-23T14:28:41.423Z,20.40
2022-09-23T14:31:28.276Z,20.20
2022-09-23T14:34:40.703Z,20.10
2022-09-23T14:37:49.210Z,20.00
2022-09-23T14:40:38.714Z,20.00
2022-09-23T14:43:27.464Z,20.00
2022-09-23T14:46:19.242Z,19.90
2022-09-23T14:49:14.468Z,19.80
2022-09-23T14:52:06.843Z,19.80
2022-09-23T14:57:41.120Z,19.80
2022-09-23T15:03:18.152Z,19.90
2022-09-23T15:06:09.151Z,20.00
2022-09-23T15:08:56.881Z,19.80
2022-09-23T15:14:39.732Z,19.80
2022-09-23T15:17:33.917Z,19.70
2022-09-23T15:20:25.530Z,19.60
2022-09-23T15:23:34.046Z,19.40
2022-09-23T15:26:22.515Z,19.40
2022-09-23T15:29:10.404Z,19.50
2022-09-23T15:37:36.279Z,19.40
2022-09-23T15:43:20.478Z,19.20
2022-09-23T15:46:09.381Z,19.10
2022-09-23T15:48:59.049Z,19.10
2022-09-23T15:54:34.425Z,18.90
2022-09-23T16:00:12.354Z,18.80
2022-09-23T16:05:50.188Z,18.70
2022-09-23T16:11:29.786Z,18.80
2022-09-23T16:14:18.017Z,18.70
2022-09-23T16:28:16.544Z,18.50
2022-09-23T16:45:03.030Z,18.20
2022-09-23T16:56:13.312Z,17.90
2022-09-23T16:58:59.773Z,17.80
2022-09-23T17:02:05.641Z,17.70
2022-09-23T17:13:15.543Z,17.60
2022-09-23T17:29:58.780Z,17.30
2022-09-23T17:41:18.019Z,17.20
2022-09-23T17:58:01.417Z,17.10
2022-09-23T18:09:11.683Z,17.10
2022-09-23T18:11:58.136Z,16.80
2022-09-23T18:25:57.337Z,16.50
2022-09-23T18:31:34.343Z,16.40
2022-09-23T18:40:03.509Z,16.50
2022-09-23T18:42:51.290Z,16.40
2022-09-23T18:45:38.015Z,16.40
2022-09-23T18:48:42.251Z,16.30
2022-09-23T18:51:30.097Z,16.30
2022-09-23T18:54:16.957Z,16.40
2022-09-23T18:59:51.667Z,16.20
2022-09-23T19:08:13.070Z,16.40
2022-09-23T19:11:01.160Z,16.40
2022-09-23T19:16:36.951Z,16.30
2022-09-23T19:24:58.053Z,16.20
2022-09-23T19:30:31.601Z,16.10
2022-09-23T19:33:19.561Z,16.10
2022-09-23T19:36:06.292Z,16.10
2022-09-23T19:38:55.074Z,16.00
2022-09-23T19:41:41.793Z,16.00
2022-09-23T19:50:07.223Z,15.60
2022-09-23T19:52:53.648Z,15.50
2022-09-23T20:01:14.528Z,15.70
2022-09-23T20:06:49.932Z,15.70
2022-09-23T20:09:36.382Z,15.70
2022-09-23T20:15:13.009Z,15.70
2022-09-23T20:17:59.630Z,15.70
2022-09-23T20:23:34.800Z,15.80
2022-09-23T20:32:13.163Z,15.60
2022-09-23T20:40:36.009Z,15.60
2022-09-23T20:57:21.234Z,15.40
2022-09-23T21:11:17.825Z,15.50
2022-09-23T21:14:06.064Z,15.50
2022-09-23T21:36:44.087Z,15.40
2022-09-23T21:53:29.707Z,15.10
2022-09-23T21:56:20.760Z,15.10
2022-09-23T22:16:03.859Z,15.00
2022-09-23T22:38:59.058Z,14.90
2022-09-23T22:41:46.806Z,14.90
2022-09-23T22:44:33.243Z,14.90
2022-09-23T23:06:55.265Z,15.10
2022-09-23T23:20:51.322Z,14.80
2022-09-23T23:26:27.976Z,14.50
2022-09-23T23:29:18.254Z,14.50
2022-09-23T23:34:51.788Z,14.60
2022-09-23T23:37:38.180Z,14.70
2022-09-23T23:46:01.415Z,14.70
2022-09-23T23:48:49.053Z,14.50
2022-09-23T23:54:22.562Z,14.30
